createdAt,value
2019-02-10T00:00:45.075Z,48.00
2019-02-10T00:03:13.720Z,48.10
2019-02-10T00:05:42.644Z,49.07
2019-02-10T00:08:11.287Z,47.57
2019-02-10T00:10:39.777Z,46.23
2019-02-10T00:13:26.838Z,46.30
2019-02-10T00:15:56.674Z,46.67
2019-02-10T00:18:25.253Z,46.67
2019-02-10T00:20:54.107Z,59.87
2019-02-10T00:23:22.747Z,62.37
2019-02-10T00:25:51.258Z,57.03
2019-02-10T00:28:19.797Z,54.33
2019-02-10T00:30:48.429Z,51.07
2019-02-10T00:33:17.080Z,54.43
2019-02-10T00:35:45.777Z,52.77
2019-02-10T00:38:14.282Z,51.37
2019-02-10T00:40:42.931Z,56.20
2019-02-10T00:43:11.612Z,59.60
2019-02-10T00:45:40.190Z,58.27
2019-02-10T00:48:08.700Z,55.60
2019-02-10T00:50:37.385Z,57.60
2019-02-10T00:53:06.028Z,107.83
2019-02-10T00:55:34.692Z,116.33
2019-02-10T00:58:03.385Z,113.83
2019-02-10T01:00:32.022Z,119.77
2019-02-10T01:03:00.719Z,126.00
2019-02-10T01:05:29.265Z,115.77
2019-02-10T01:07:57.918Z,128.87
2019-02-10T01:10:27.329Z,114.40
2019-02-10T01:12:56.005Z,112.77
2019-02-10T01:15:24.642Z,96.43
2019-02-10T01:17:53.211Z,93.83
2019-02-10T01:20:21.949Z,102.50
2019-02-10T01:22:50.588Z,77.40
2019-02-10T01:25:19.212Z,84.77
2019-02-10T01:27:47.890Z,92.63
2019-02-10T01:30:16.541Z,93.70
2019-02-10T01:32:45.184Z,92.50
2019-02-10T01:35:13.962Z,97.63
2019-02-10T01:37:42.603Z,84.53
2019-02-10T01:40:11.839Z,85.63
2019-02-10T01:42:40.638Z,89.20
2019-02-10T01:45:11.559Z,105.17
2019-02-10T01:47:40.308Z,95.37
2019-02-10T01:50:11.048Z,102.30
2019-02-10T01:52:39.615Z,80.20
2019-02-10T01:55:13.127Z,77.53
2019-02-10T01:57:42.207Z,74.00
2019-02-10T02:00:18.278Z,80.87
2019-02-10T02:02:46.877Z,74.40
2019-02-10T02:05:15.841Z,68.40
2019-02-10T02:07:44.467Z,65.87
2019-02-10T02:10:14.880Z,69.13
2019-02-10T02:12:43.445Z,72.87
2019-02-10T02:15:16.201Z,67.30
2019-02-10T02:17:44.977Z,70.27
2019-02-10T02:20:14.317Z,70.00
2019-02-10T02:22:42.966Z,72.20
2019-02-10T02:27:46.844Z,73.80
2019-02-10T02:30:16.129Z,80.10
2019-02-10T02:32:44.768Z,79.90
2019-02-10T02:35:13.508Z,77.97
2019-02-10T02:37:42.229Z,74.20
2019-02-10T02:40:11.761Z,71.60
2019-02-10T02:42:40.593Z,70.73
2019-02-10T02:45:13.602Z,77.30
2019-02-10T02:47:42.178Z,74.97
2019-02-10T02:50:11.852Z,70.37
2019-02-10T02:52:40.614Z,68.73
2019-02-10T02:55:10.240Z,69.63
2019-02-10T02:57:38.885Z,67.17
2019-02-10T03:00:09.385Z,68.27
2019-02-10T03:02:37.887Z,74.87
2019-02-10T03:05:08.940Z,71.13
2019-02-10T03:07:37.607Z,68.67
2019-02-10T03:10:08.047Z,67.70
2019-02-10T03:12:36.789Z,72.53
2019-02-10T03:15:07.975Z,75.17
2019-02-10T03:17:36.622Z,71.40
2019-02-10T03:20:07.276Z,72.30
2019-02-10T03:22:35.857Z,73.90
2019-02-10T03:25:05.510Z,77.20
2019-02-10T03:27:34.143Z,76.93
2019-02-10T03:30:02.680Z,75.47
2019-02-10T03:32:31.241Z,70.03
2019-02-10T03:34:59.877Z,67.20
2019-02-10T03:37:28.546Z,47.93
2019-02-10T03:39:57.068Z,45.83
2019-02-10T03:42:25.806Z,41.90
2019-02-10T03:44:54.484Z,36.17
2019-02-10T03:47:23.149Z,33.77
2019-02-10T03:49:51.620Z,32.10
2019-02-10T03:52:20.493Z,42.27
2019-02-10T03:54:49.126Z,47.67
2019-02-10T03:57:17.763Z,41.47
2019-02-10T03:59:46.428Z,40.70
2019-02-10T04:02:14.915Z,45.33
2019-02-10T04:04:43.544Z,43.50
2019-02-10T04:07:12.417Z,34.90
2019-02-10T04:09:40.958Z,44.30
2019-02-10T04:12:09.446Z,43.23
2019-02-10T04:14:38.134Z,48.20
2019-02-10T04:17:06.693Z,48.47
2019-02-10T04:19:35.333Z,48.47
2019-02-10T04:22:04.211Z,50.13
2019-02-10T04:24:32.715Z,53.93
2019-02-10T04:27:01.222Z,56.63
2019-02-10T04:29:29.900Z,59.20
2019-02-10T04:31:58.541Z,59.47
2019-02-10T04:34:27.103Z,60.20
2019-02-10T04:36:55.700Z,60.77
2019-02-10T04:39:24.431Z,60.60
2019-02-10T04:41:53.060Z,59.50
2019-02-10T04:44:21.611Z,59.33
2019-02-10T04:46:50.113Z,61.20
2019-02-10T04:49:18.747Z,59.10
2019-02-10T04:51:47.433Z,60.50
2019-02-10T04:54:15.920Z,61.13
2019-02-10T04:56:44.567Z,66.47
2019-02-10T04:59:13.269Z,66.13
2019-02-10T05:01:41.763Z,63.83
2019-02-10T05:04:10.395Z,66.50
2019-02-10T05:06:39.087Z,76.33
2019-02-10T05:09:07.577Z,77.63
2019-02-10T05:11:36.100Z,78.07
2019-02-10T05:14:04.764Z,73.23
2019-02-10T05:16:33.418Z,66.93
2019-02-10T05:19:01.910Z,64.57
2019-02-10T05:21:30.454Z,64.30
2019-02-10T05:24:03.464Z,64.93
2019-02-10T05:26:29.470Z,63.83
2019-02-10T05:28:58.003Z,62.47
2019-02-10T05:31:26.519Z,63.80
2019-02-10T05:33:55.179Z,66.87
2019-02-10T05:36:26.604Z,67.43
2019-02-10T05:38:55.246Z,66.63
2019-02-10T05:41:23.894Z,70.43
2019-02-10T05:43:52.495Z,69.77
2019-02-10T05:46:20.993Z,70.70
2019-02-10T05:48:49.707Z,77.13
2019-02-10T05:51:18.389Z,71.37
2019-02-10T05:53:46.917Z,69.97
2019-02-10T05:56:15.407Z,68.17
2019-02-10T05:58:44.107Z,68.33
2019-02-10T06:01:49.326Z,65.57
2019-02-10T06:04:17.989Z,64.53
2019-02-10T06:06:46.485Z,71.53
2019-02-10T06:09:15.128Z,72.90
2019-02-10T06:11:43.791Z,72.80
2019-02-10T06:14:12.278Z,67.57
2019-02-10T06:16:40.773Z,67.10
2019-02-10T06:19:09.437Z,66.23
2019-02-10T06:21:38.080Z,65.73
2019-02-10T06:24:06.570Z,65.33
2019-02-10T06:26:35.107Z,67.10
2019-02-10T06:29:03.786Z,66.65
2019-02-10T06:31:32.414Z,65.40
2019-02-10T06:34:00.940Z,60.58
2019-02-10T06:36:29.435Z,60.63
2019-02-10T06:38:58.092Z,63.70
2019-02-10T06:41:26.750Z,63.68
2019-02-10T06:43:55.238Z,56.65
2019-02-10T06:46:23.737Z,55.95
2019-02-10T06:48:52.393Z,49.77
2019-02-10T06:51:21.024Z,48.80
2019-02-10T06:53:49.512Z,43.68
2019-02-10T06:56:18.178Z,30.08
2019-02-10T06:58:48.257Z,30.88
2019-02-10T07:01:33.567Z,35.15
2019-02-10T07:04:05.394Z,32.45
2019-02-10T07:06:34.026Z,30.62
2019-02-10T07:09:02.860Z,33.30
2019-02-10T07:11:31.357Z,27.73
2019-02-10T07:13:59.981Z,26.27
2019-02-10T07:16:37.595Z,24.35
2019-02-10T07:19:42.585Z,25.17
2019-02-10T07:22:43.164Z,25.65
2019-02-10T07:25:17.688Z,27.95
2019-02-10T07:28:04.521Z,31.07
2019-02-10T07:30:41.990Z,28.35
2019-02-10T07:33:16.940Z,32.28
2019-02-10T07:36:20.324Z,27.60
2019-02-10T07:38:51.919Z,28.75
2019-02-10T07:41:25.975Z,28.92
2019-02-10T07:44:12.805Z,30.05
2019-02-10T07:46:56.105Z,30.02
2019-02-10T07:49:47.254Z,27.95
2019-02-10T07:52:36.934Z,28.62
2019-02-10T07:55:43.573Z,30.90
2019-02-10T07:58:30.111Z,31.27
2019-02-10T08:01:17.859Z,32.53
2019-02-10T08:03:54.970Z,31.45
2019-02-10T08:06:26.514Z,30.40
2019-02-10T08:09:00.908Z,32.33
2019-02-10T08:11:32.438Z,30.30
2019-02-10T08:14:19.051Z,32.15
2019-02-10T08:17:08.372Z,33.85
2019-02-10T08:20:05.765Z,33.08
2019-02-10T08:22:53.784Z,32.13
2019-02-10T08:25:41.853Z,32.65
2019-02-10T08:28:17.150Z,31.75
2019-02-10T08:30:54.905Z,30.68
2019-02-10T08:33:32.450Z,29.57
2019-02-10T08:36:31.127Z,31.15
2019-02-10T08:39:28.168Z,33.25
2019-02-10T08:42:08.948Z,34.27
2019-02-10T08:45:07.553Z,33.13
2019-02-10T08:47:50.546Z,31.27
2019-02-10T08:50:46.062Z,32.75
2019-02-10T08:53:20.848Z,33.98
2019-02-10T08:55:49.467Z,35.98
2019-02-10T08:58:17.953Z,33.85
2019-02-10T09:00:46.561Z,35.65
2019-02-10T09:03:19.611Z,35.03
2019-02-10T09:05:45.419Z,32.55
2019-02-10T09:08:14.085Z,34.18
2019-02-10T09:10:42.710Z,30.90
2019-02-10T09:13:11.195Z,31.60
2019-02-10T09:15:39.722Z,28.32
2019-02-10T09:18:08.345Z,29.20
2019-02-10T09:20:36.841Z,26.70
2019-02-10T09:23:05.498Z,24.92
2019-02-10T09:25:34.121Z,25.75
2019-02-10T09:28:02.606Z,30.90
2019-02-10T09:30:31.213Z,27.32
2019-02-10T09:32:59.829Z,25.92
2019-02-10T09:35:28.456Z,25.02
2019-02-10T09:37:56.978Z,26.95
2019-02-10T09:40:25.502Z,28.17
2019-02-10T09:42:54.226Z,28.40
2019-02-10T09:45:22.946Z,28.62
2019-02-10T09:47:51.563Z,28.35
2019-02-10T09:50:20.689Z,29.67
2019-02-10T09:52:49.222Z,27.32
2019-02-10T09:55:17.717Z,35.58
2019-02-10T09:57:46.343Z,30.05
2019-02-10T10:00:15.603Z,29.98
2019-02-10T10:02:44.219Z,28.65
2019-02-10T10:05:13.940Z,27.98
2019-02-10T10:07:48.331Z,28.17
2019-02-10T10:10:16.952Z,25.92
2019-02-10T10:12:45.445Z,27.10
2019-02-10T10:15:16.112Z,24.00
2019-02-10T10:17:44.842Z,27.00
2019-02-10T10:20:16.317Z,19.45
2019-02-10T10:22:45.634Z,22.10
2019-02-10T10:25:14.365Z,21.50
2019-02-10T10:27:42.855Z,22.37
2019-02-10T10:30:14.144Z,20.77
2019-02-10T10:32:42.840Z,22.25
2019-02-10T10:35:11.463Z,20.37
2019-02-10T10:37:40.049Z,17.52
2019-02-10T10:40:30.019Z,8.60
2019-02-10T10:42:58.704Z,3.87
2019-02-10T10:45:27.336Z,2.42
2019-02-10T10:47:55.818Z,3.35
2019-02-10T10:50:24.413Z,2.10
2019-02-10T10:52:53.025Z,1.17
2019-02-10T10:55:21.641Z,1.32
2019-02-10T10:57:50.236Z,2.12
2019-02-10T11:00:18.919Z,1.47
2019-02-10T11:02:47.548Z,1.50
2019-02-10T11:05:16.498Z,2.22
2019-02-10T11:07:45.150Z,1.40
2019-02-10T11:10:14.154Z,2.08
2019-02-10T11:15:18.282Z,2.12
2019-02-10T11:17:46.900Z,2.17
2019-02-10T11:20:15.530Z,1.37
2019-02-10T11:22:44.056Z,2.00
2019-02-10T11:25:12.910Z,2.52
2019-02-10T11:27:41.530Z,2.12
2019-02-10T11:30:13.249Z,1.45
2019-02-10T11:32:41.809Z,1.42
2019-02-10T11:35:10.429Z,0.90
2019-02-10T11:37:39.105Z,1.30
2019-02-10T11:40:10.247Z,1.35
2019-02-10T11:42:38.865Z,2.10
2019-02-10T11:45:13.053Z,1.75
2019-02-10T11:47:41.673Z,1.77
2019-02-10T11:50:12.355Z,2.50
2019-02-10T11:52:41.021Z,2.25
2019-02-10T11:55:10.636Z,2.00
2019-02-10T11:57:39.256Z,1.50
2019-02-10T12:00:16.928Z,2.08
2019-02-10T12:02:45.560Z,1.57
2019-02-10T12:05:14.226Z,1.70
2019-02-10T12:07:42.871Z,1.05
2019-02-10T12:10:14.666Z,2.05
2019-02-10T12:12:43.149Z,1.07
2019-02-10T12:15:13.951Z,1.92
2019-02-10T12:17:42.566Z,1.45
2019-02-10T12:20:14.901Z,1.77
2019-02-10T12:22:49.949Z,1.50
2019-02-10T12:25:13.928Z,2.42
2019-02-10T12:27:42.529Z,1.12
2019-02-10T12:30:15.981Z,2.10
2019-02-10T12:32:44.597Z,1.42
2019-02-10T12:35:13.320Z,1.30
2019-02-10T12:37:41.906Z,0.88
2019-02-10T12:40:11.833Z,1.60
2019-02-10T12:42:40.452Z,1.42
2019-02-10T12:45:11.112Z,1.60
2019-02-10T12:47:39.747Z,1.35
2019-02-10T12:50:11.312Z,1.87
2019-02-10T12:52:39.968Z,2.00
2019-02-10T12:55:09.898Z,2.00
2019-02-10T12:57:38.510Z,2.25
2019-02-10T13:00:10.231Z,1.90
2019-02-10T13:02:38.720Z,3.80
2019-02-10T13:05:07.646Z,3.00
2019-02-10T13:07:36.175Z,2.80
2019-02-10T13:10:08.390Z,1.22
2019-02-10T13:12:37.156Z,1.40
2019-02-10T13:15:07.416Z,1.00
2019-02-10T13:17:35.914Z,1.50
2019-02-10T13:20:06.579Z,1.65
2019-02-10T13:22:35.243Z,3.20
2019-02-10T13:25:04.685Z,2.30
2019-02-10T13:27:33.255Z,3.17
2019-02-10T13:30:01.803Z,3.17
2019-02-10T13:32:36.350Z,3.17
2019-02-10T13:35:05.282Z,3.60
2019-02-10T13:37:33.820Z,2.33
2019-02-10T13:40:02.299Z,3.45
2019-02-10T13:42:30.916Z,2.55
2019-02-10T13:44:59.511Z,2.50
2019-02-10T13:47:28.065Z,2.98
2019-02-10T13:49:56.697Z,4.22
2019-02-10T13:52:25.522Z,3.40
2019-02-10T13:54:54.007Z,3.40
2019-02-10T13:57:22.619Z,3.20
2019-02-10T13:59:51.293Z,3.22
2019-02-10T14:02:19.772Z,3.37
2019-02-10T14:04:48.272Z,2.90
2019-02-10T14:07:16.925Z,2.67
2019-02-10T14:09:45.545Z,3.02
2019-02-10T14:12:14.131Z,4.50
2019-02-10T14:14:42.686Z,3.35
2019-02-10T14:17:11.299Z,3.12
2019-02-10T14:19:39.925Z,2.42
2019-02-10T14:22:08.629Z,2.77
2019-02-10T14:24:37.259Z,3.00
2019-02-10T14:27:05.732Z,2.25
2019-02-10T14:29:34.373Z,3.02
2019-02-10T14:32:03.008Z,2.00
2019-02-10T14:34:31.628Z,1.65
2019-02-10T14:37:00.157Z,3.65
2019-02-10T14:39:28.645Z,2.77
2019-02-10T14:41:57.278Z,4.08
2019-02-10T14:44:25.932Z,3.95
2019-02-10T14:46:54.483Z,3.75
2019-02-10T14:49:23.552Z,3.35
2019-02-10T14:51:52.223Z,4.05
2019-02-10T14:54:26.818Z,3.85
2019-02-10T14:56:55.302Z,3.20
2019-02-10T14:59:23.839Z,3.52
2019-02-10T15:01:52.467Z,4.20
2019-02-10T15:04:20.948Z,3.62
2019-02-10T15:06:49.628Z,3.75
2019-02-10T15:09:18.320Z,3.50
2019-02-10T15:11:46.844Z,3.70
2019-02-10T15:14:15.369Z,3.35
2019-02-10T15:16:43.989Z,3.75
2019-02-10T15:19:12.607Z,4.08
2019-02-10T15:21:42.411Z,3.95
2019-02-10T15:24:11.102Z,7.40
2019-02-10T15:26:39.729Z,49.08
2019-02-10T15:29:08.410Z,28.20
2019-02-10T15:31:36.919Z,17.02
2019-02-10T15:34:05.455Z,34.58
2019-02-10T15:36:34.393Z,42.50
2019-02-10T15:39:03.117Z,145.10
2019-02-10T15:41:31.632Z,158.90
2019-02-10T15:44:00.553Z,130.97
2019-02-10T15:46:29.116Z,56.37
2019-02-10T15:48:57.617Z,37.50
2019-02-10T15:51:35.551Z,34.43
2019-02-10T15:53:56.858Z,57.33
2019-02-10T15:56:25.368Z,145.30
2019-02-10T15:58:53.899Z,58.75
2019-02-10T16:01:22.646Z,44.55
2019-02-10T16:03:51.312Z,59.73
2019-02-10T16:06:19.840Z,155.32
2019-02-10T16:08:48.348Z,38.45
2019-02-10T16:11:17.053Z,30.35
2019-02-10T16:13:45.906Z,65.67
2019-02-10T16:16:20.390Z,126.22
2019-02-10T16:18:48.961Z,48.70
2019-02-10T16:21:17.627Z,34.20
2019-02-10T16:23:46.117Z,24.70
2019-02-10T16:26:14.758Z,58.17
2019-02-10T16:28:43.463Z,22.37
2019-02-10T16:31:11.961Z,17.52
2019-02-10T16:33:40.566Z,19.50
2019-02-10T16:36:09.228Z,16.12
2019-02-10T16:38:37.815Z,66.12
2019-02-10T16:41:06.844Z,27.20
2019-02-10T16:43:35.516Z,15.78
2019-02-10T16:46:04.142Z,42.62
2019-02-10T16:48:32.787Z,33.38
2019-02-10T16:51:01.391Z,19.77
2019-02-10T16:53:33.045Z,30.52
2019-02-10T16:56:01.665Z,29.70
2019-02-10T16:58:30.332Z,29.87
2019-02-10T17:00:58.830Z,26.02
2019-02-10T17:03:27.312Z,33.55
2019-02-10T17:05:55.983Z,43.10
2019-02-10T17:08:24.722Z,24.80
2019-02-10T17:10:53.221Z,25.72
2019-02-10T17:13:22.015Z,20.80
2019-02-10T17:15:50.644Z,20.85
2019-02-10T17:18:19.265Z,20.92
2019-02-10T17:20:47.810Z,21.70
2019-02-10T17:23:16.293Z,33.08
2019-02-10T17:25:44.922Z,26.00
2019-02-10T17:28:13.588Z,29.90
2019-02-10T17:30:42.168Z,35.83
2019-02-10T17:33:10.661Z,34.50
2019-02-10T17:35:39.334Z,32.48
2019-02-10T17:38:07.972Z,30.95
2019-02-10T17:40:39.370Z,28.90
2019-02-10T17:43:08.047Z,27.32
2019-02-10T17:45:36.540Z,28.42
2019-02-10T17:48:05.267Z,28.00
2019-02-10T17:50:33.950Z,29.48
2019-02-10T17:53:02.568Z,27.70
2019-02-10T17:55:31.062Z,29.18
2019-02-10T17:57:59.592Z,28.90
2019-02-10T18:00:29.863Z,27.87
2019-02-10T18:02:58.498Z,28.73
2019-02-10T18:05:27.174Z,30.43
2019-02-10T18:07:55.669Z,28.10
2019-02-10T18:10:24.306Z,24.60
2019-02-10T18:12:52.973Z,33.08
2019-02-10T18:15:32.027Z,32.88
2019-02-10T18:18:18.132Z,30.82
2019-02-10T18:21:07.476Z,32.45
2019-02-10T18:23:43.820Z,32.20
2019-02-10T18:26:30.255Z,33.35
2019-02-10T18:29:16.745Z,42.05
2019-02-10T18:31:49.509Z,36.13
2019-02-10T18:34:19.630Z,37.48
2019-02-10T18:37:01.768Z,37.25
2019-02-10T18:39:38.197Z,38.80
2019-02-10T18:42:08.364Z,49.48
2019-02-10T18:44:41.272Z,49.30
2019-02-10T18:47:26.868Z,43.10
2019-02-10T18:50:00.234Z,39.40
2019-02-10T18:52:30.382Z,39.42
2019-02-10T18:55:00.553Z,37.98
2019-02-10T18:57:47.275Z,44.30
2019-02-10T19:00:29.580Z,47.27
2019-02-10T19:02:59.704Z,46.23
2019-02-10T19:05:32.703Z,51.50
2019-02-10T19:08:02.957Z,51.65
2019-02-10T19:10:36.064Z,50.52
2019-02-10T19:13:06.331Z,47.53
2019-02-10T19:15:36.698Z,52.53
2019-02-10T19:18:16.203Z,59.75
2019-02-10T19:20:51.849Z,54.18
2019-02-10T19:23:34.040Z,53.15
2019-02-10T19:26:04.360Z,48.35
2019-02-10T19:28:40.275Z,54.55
2019-02-10T19:31:26.789Z,55.10
2019-02-10T19:33:59.725Z,61.28
2019-02-10T19:36:30.032Z,55.20
2019-02-10T19:39:16.422Z,44.25
2019-02-10T19:42:03.175Z,45.55
2019-02-10T19:44:49.704Z,36.75
2019-02-10T19:47:22.586Z,30.62
2019-02-10T19:50:09.575Z,27.27
2019-02-10T19:52:51.765Z,31.80
2019-02-10T19:55:27.796Z,29.82
2019-02-10T19:58:03.722Z,26.87
2019-02-10T20:00:42.971Z,23.47
2019-02-10T20:03:19.020Z,23.85
2019-02-10T20:05:52.177Z,22.80
2019-02-10T20:08:25.157Z,21.00
2019-02-10T20:11:01.368Z,21.97
2019-02-10T20:13:37.811Z,19.23
2019-02-10T20:16:08.112Z,18.55
2019-02-10T20:18:38.310Z,17.75
2019-02-10T20:21:08.590Z,16.90
2019-02-10T20:23:41.722Z,14.23
2019-02-10T20:26:17.611Z,17.00
2019-02-10T20:28:56.736Z,17.87
2019-02-10T20:31:26.871Z,16.50
2019-02-10T20:34:02.614Z,16.67
2019-02-10T20:36:35.897Z,16.95
2019-02-10T20:39:09.826Z,16.57
2019-02-10T20:41:40.018Z,17.25
2019-02-10T20:44:18.684Z,16.73
2019-02-10T20:47:41.884Z,17.70
2019-02-10T20:50:21.518Z,19.20
2019-02-10T20:53:03.658Z,17.32
2019-02-10T20:55:36.552Z,18.37
2019-02-10T20:58:23.569Z,17.35
2019-02-10T21:00:56.868Z,19.02
2019-02-10T21:03:32.541Z,19.30
2019-02-10T21:06:02.701Z,21.73
2019-02-10T21:08:35.838Z,22.07
2019-02-10T21:11:12.009Z,21.55
2019-02-10T21:14:00.852Z,21.10
2019-02-10T21:16:47.331Z,22.62
2019-02-10T21:19:32.245Z,21.97
2019-02-10T21:22:11.849Z,23.37
2019-02-10T21:27:57.128Z,24.60
2019-02-10T21:30:42.324Z,24.70
2019-02-10T21:33:15.757Z,25.20
2019-02-10T21:35:46.033Z,24.70
2019-02-10T21:38:25.306Z,28.70
2019-02-10T21:40:55.431Z,29.17
2019-02-10T21:43:37.211Z,35.10
2019-02-10T21:46:13.287Z,30.92
2019-02-10T21:48:43.813Z,26.33
2019-02-10T21:51:12.369Z,27.48
2019-02-10T21:53:40.991Z,28.43
2019-02-10T21:56:09.657Z,31.40
2019-02-10T21:58:38.159Z,27.62
2019-02-10T22:01:06.800Z,29.25
2019-02-10T22:03:35.474Z,28.50
2019-02-10T22:06:04.031Z,27.23
2019-02-10T22:08:32.599Z,24.70
2019-02-10T22:11:01.256Z,26.97
2019-02-10T22:13:29.882Z,27.40
2019-02-10T22:15:58.384Z,29.77
2019-02-10T22:18:26.925Z,29.32
2019-02-10T22:20:55.570Z,28.80
2019-02-10T22:23:24.223Z,30.48
2019-02-10T22:25:52.966Z,30.40
2019-02-10T22:28:21.454Z,28.60
2019-02-10T22:30:50.091Z,27.10
2019-02-10T22:33:18.769Z,31.70
2019-02-10T22:35:47.351Z,29.67
2019-02-10T22:38:15.841Z,30.70
2019-02-10T22:40:44.499Z,28.87
2019-02-10T22:43:13.134Z,30.33
2019-02-10T22:45:41.637Z,29.13
2019-02-10T22:48:10.422Z,31.27
2019-02-10T22:50:39.054Z,30.33
2019-02-10T22:53:07.677Z,29.60
2019-02-10T22:55:36.239Z,31.00
2019-02-10T22:58:04.731Z,29.83
2019-02-10T23:00:43.962Z,31.73
2019-02-10T23:03:12.776Z,31.20
2019-02-10T23:05:41.429Z,31.67
2019-02-10T23:08:09.959Z,30.67
2019-02-10T23:10:38.577Z,30.57
2019-02-10T23:13:07.129Z,31.43
2019-02-10T23:15:36.003Z,30.87
2019-02-10T23:18:04.634Z,31.33
2019-02-10T23:20:33.138Z,33.47
2019-02-10T23:23:02.699Z,30.97
2019-02-10T23:25:31.334Z,31.77
2019-02-10T23:27:59.957Z,31.77
2019-02-10T23:30:28.813Z,31.87
2019-02-10T23:32:57.298Z,34.37
2019-02-10T23:35:28.666Z,39.13
2019-02-10T23:37:57.542Z,39.77
2019-02-10T23:40:26.033Z,37.47
2019-02-10T23:43:01.893Z,35.33
2019-02-10T23:45:24.920Z,37.87
2019-02-10T23:47:53.556Z,37.27
2019-02-10T23:50:22.054Z,39.00
2019-02-10T23:52:50.736Z,39.90
2019-02-10T23:55:19.224Z,43.43
2019-02-10T23:57:47.726Z,45.37
